Terminal Aerodrome Forecast
Issued by NWS

Home | Current Version | Previous Version | Text Only | Print | Product List | Glossary On
Versions: 1 2 3 4 5 6 7 8 9 10 11 12 13 14 15 16 17 18 19 20 21 22 23
000
FTUS46 KOTX 050536
TAFCOE
TAF
KCOE 050536Z 0506/0606 05004KT P6SM SCT080 BKN100
     FM050630 23022G31KT 5SM TSRA SCT040 BKN080CB BKN100
     FM050730 22010KT P6SM VCTS BKN080CB BKN120
     FM050830 21007KT P6SM SCT080 BKN100
      AMD LTD TO CLD VIS AND WIND=

USA.gov is the U.S. government's official web portal to all federal, state and local government web resources and services.